createdAt,value
2023-04-26T00:00:11.347Z,95.8934
2023-04-26T00:01:12.042Z,95.8503
2023-04-26T00:02:12.797Z,95.9434
2023-04-26T00:03:13.628Z,95.9650
2023-04-26T00:04:14.817Z,95.9018
2023-04-26T00:05:15.742Z,95.8447
2023-04-26T00:06:16.455Z,95.9367
2023-04-26T00:07:17.138Z,95.9145
2023-04-26T00:08:17.776Z,95.8733
2023-04-26T00:09:18.505Z,95.8004
2023-04-26T00:10:19.171Z,95.7245
2023-04-26T00:11:19.835Z,95.7128
2023-04-26T00:12:20.542Z,95.8378
2023-04-26T00:13:21.260Z,95.9019
2023-04-26T00:14:21.900Z,95.9022
2023-04-26T00:15:22.584Z,95.9892
2023-04-26T00:16:23.255Z,96.0257
2023-04-26T00:17:23.896Z,95.9866
2023-04-26T00:18:24.516Z,96.0511
2023-04-26T00:19:25.159Z,96.0397
2023-04-26T00:20:25.787Z,95.9403
2023-04-26T00:21:26.439Z,95.9703
2023-04-26T00:22:27.052Z,95.9597
2023-04-26T00:23:27.730Z,96.1297
2023-04-26T00:24:28.468Z,96.2857
2023-04-26T00:25:29.130Z,96.2540
2023-04-26T00:26:29.773Z,96.1252
2023-04-26T00:27:30.430Z,96.0899
2023-04-26T00:28:31.045Z,96.0847
2023-04-26T00:29:31.748Z,96.1399
2023-04-26T00:30:32.445Z,96.0304
2023-04-26T00:31:33.107Z,96.0136
2023-04-26T00:32:33.751Z,95.9586
2023-04-26T00:33:34.475Z,95.9314
2023-04-26T00:34:35.167Z,95.9455
2023-04-26T00:35:35.834Z,96.0006
2023-04-26T00:36:36.608Z,95.9541
2023-04-26T00:37:37.336Z,96.0990
2023-04-26T00:38:37.960Z,96.1875
2023-04-26T00:39:38.700Z,96.0748
2023-04-26T00:40:39.374Z,96.1522
2023-04-26T00:41:40.084Z,96.2211
2023-04-26T00:42:40.741Z,96.2194
2023-04-26T00:43:41.426Z,96.0510
2023-04-26T00:44:42.110Z,95.8296
2023-04-26T00:45:42.839Z,95.7532
2023-04-26T00:46:43.471Z,95.7753
2023-04-26T00:47:44.162Z,95.7049
2023-04-26T00:48:44.790Z,95.6020
2023-04-26T00:49:45.483Z,95.6128
2023-04-26T00:50:46.159Z,95.5817
2023-04-26T00:51:46.829Z,95.7830
2023-04-26T00:52:47.558Z,95.7937
2023-04-26T00:53:48.210Z,95.7685
2023-04-26T00:54:48.939Z,95.6767
2023-04-26T00:55:49.661Z,95.5179
2023-04-26T00:56:50.348Z,95.4871
2023-04-26T00:57:51.000Z,95.2735
2023-04-26T00:58:51.870Z,95.2181
2023-04-26T00:59:52.828Z,95.0975
2023-04-26T01:00:53.811Z,94.8885
2023-04-26T01:01:54.530Z,94.9821
2023-04-26T01:02:55.314Z,95.0662
2023-04-26T01:03:56.131Z,94.9796
2023-04-26T01:04:57.037Z,95.0150
2023-04-26T01:05:57.688Z,95.0901
2023-04-26T01:06:58.390Z,95.0154
2023-04-26T01:07:59.102Z,94.9792
2023-04-26T01:08:59.773Z,94.8348
2023-04-26T01:10:00.464Z,94.8655
2023-04-26T01:11:01.157Z,94.9489
2023-04-26T01:12:01.867Z,94.9154
2023-04-26T01:13:02.582Z,95.0493
2023-04-26T01:14:03.257Z,95.1560
2023-04-26T01:15:03.978Z,95.1368
2023-04-26T01:16:04.694Z,95.1277
2023-04-26T01:17:05.340Z,95.2476
2023-04-26T01:18:06.093Z,95.1923
2023-04-26T01:19:06.735Z,95.1664
2023-04-26T01:20:07.422Z,95.2288
2023-04-26T01:21:08.126Z,95.3712
2023-04-26T01:22:08.873Z,95.4648
2023-04-26T01:23:09.535Z,95.5555
2023-04-26T01:24:10.209Z,95.6910
2023-04-26T01:25:10.898Z,95.8228
2023-04-26T01:26:11.595Z,95.9192
2023-04-26T01:27:12.230Z,95.9014
2023-04-26T01:28:12.878Z,95.9442
2023-04-26T01:29:13.598Z,95.9894
2023-04-26T01:30:14.361Z,95.9630
2023-04-26T01:31:15.030Z,95.9305
2023-04-26T01:32:15.734Z,96.0277
2023-04-26T01:33:16.472Z,96.2160
2023-04-26T01:34:17.192Z,96.3781
2023-04-26T01:35:17.916Z,96.2761
2023-04-26T01:36:18.565Z,96.2564
2023-04-26T01:37:19.231Z,96.2121
2023-04-26T01:38:19.963Z,96.2904
2023-04-26T01:39:20.603Z,96.3440
2023-04-26T01:40:21.358Z,96.3917
2023-04-26T01:41:21.984Z,96.3518
2023-04-26T01:42:22.689Z,96.2694
2023-04-26T01:43:23.388Z,96.2900
2023-04-26T01:44:24.053Z,96.2868
2023-04-26T01:45:24.739Z,96.2753
2023-04-26T01:46:25.442Z,96.2045
2023-04-26T01:47:26.121Z,96.1348
2023-04-26T01:48:26.784Z,96.0940
2023-04-26T01:49:27.455Z,96.1295
2023-04-26T01:50:28.122Z,96.1371
2023-04-26T01:51:28.962Z,96.1021
2023-04-26T01:52:29.784Z,96.0881
2023-04-26T01:53:30.531Z,96.0961
2023-04-26T01:54:31.189Z,96.1345
2023-04-26T01:55:31.855Z,96.1724
2023-04-26T01:56:32.666Z,96.2124
2023-04-26T01:57:33.407Z,96.2617
2023-04-26T01:58:34.100Z,96.2101
2023-04-26T01:59:34.737Z,96.3369
2023-04-26T02:00:35.454Z,96.2165
2023-04-26T02:01:36.118Z,96.1562
2023-04-26T02:02:36.945Z,96.0922
2023-04-26T02:03:37.844Z,96.0892
2023-04-26T02:04:38.565Z,96.0674
2023-04-26T02:05:39.194Z,96.0290
2023-04-26T02:06:39.896Z,96.1017
2023-04-26T02:07:40.609Z,96.0929
2023-04-26T02:08:41.247Z,96.1354
2023-04-26T02:09:41.943Z,96.1529
2023-04-26T02:10:42.659Z,96.2126
2023-04-26T02:11:43.358Z,96.2826
2023-04-26T02:12:44.066Z,96.4153
2023-04-26T02:13:44.711Z,96.5578
2023-04-26T02:14:45.361Z,96.6967
2023-04-26T02:15:46.127Z,96.8376
2023-04-26T02:16:46.881Z,96.8844
2023-04-26T02:17:47.547Z,96.9143
2023-04-26T02:18:48.289Z,96.9024
2023-04-26T02:19:48.939Z,96.8511
2023-04-26T02:20:49.650Z,96.8232
2023-04-26T02:21:50.337Z,96.8748
2023-04-26T02:22:50.998Z,96.8725
2023-04-26T02:23:51.629Z,96.8185
2023-04-26T02:24:52.319Z,96.8020
2023-04-26T02:25:52.987Z,96.8421
2023-04-26T02:26:53.682Z,96.8069
2023-04-26T02:27:54.357Z,96.7643
2023-04-26T02:28:55.159Z,96.8142
2023-04-26T02:29:55.846Z,96.7787
2023-04-26T02:30:56.556Z,96.6906
2023-04-26T02:31:57.377Z,96.6031
2023-04-26T02:32:58.092Z,96.5958
2023-04-26T02:33:58.778Z,96.5920
2023-04-26T02:34:59.527Z,96.6936
2023-04-26T02:36:00.186Z,96.7672
2023-04-26T02:37:00.912Z,96.7889
2023-04-26T02:38:01.632Z,96.8280
2023-04-26T02:39:02.325Z,96.9277
2023-04-26T02:40:03.054Z,96.9902
2023-04-26T02:41:03.940Z,97.0296
2023-04-26T02:42:04.708Z,97.0946
2023-04-26T02:43:05.385Z,97.0944
2023-04-26T02:44:06.091Z,97.0948
2023-04-26T02:45:06.854Z,97.1083
2023-04-26T02:46:07.563Z,97.1038
2023-04-26T02:47:08.321Z,97.1386
2023-04-26T02:48:09.083Z,97.0667
2023-04-26T02:49:09.750Z,97.0660
2023-04-26T02:50:10.420Z,97.2045
2023-04-26T02:51:11.104Z,97.1987
2023-04-26T02:52:11.814Z,97.2089
2023-04-26T02:53:12.514Z,97.1385
2023-04-26T02:54:13.252Z,97.0764
2023-04-26T02:55:13.928Z,97.1224
2023-04-26T02:56:14.620Z,97.0968
2023-04-26T02:57:15.287Z,97.0948
2023-04-26T02:58:16.000Z,97.1074
2023-04-26T02:59:16.673Z,97.0409
2023-04-26T03:00:17.399Z,97.0188
2023-04-26T03:01:18.159Z,97.0057
2023-04-26T03:02:18.970Z,97.0524
2023-04-26T03:03:19.910Z,97.1691
2023-04-26T03:04:21.030Z,97.2442
2023-04-26T03:05:21.705Z,97.3386
2023-04-26T03:06:22.428Z,97.4164
2023-04-26T03:07:23.138Z,97.4278
2023-04-26T03:08:23.988Z,97.4483
2023-04-26T03:09:24.606Z,97.4821
2023-04-26T03:10:25.285Z,97.4838
2023-04-26T03:11:26.011Z,97.4557
2023-04-26T03:12:26.123Z,97.4408
2023-04-26T03:13:26.852Z,97.4807
2023-04-26T03:14:27.528Z,97.5214
2023-04-26T03:15:28.216Z,97.5234
2023-04-26T03:16:28.969Z,97.5406
2023-04-26T03:17:29.625Z,97.5538
2023-04-26T03:18:30.363Z,97.5788
2023-04-26T03:19:31.020Z,97.6151
2023-04-26T03:20:31.685Z,97.6210
2023-04-26T03:21:32.357Z,97.5992
2023-04-26T03:22:33.036Z,97.5597
2023-04-26T03:23:33.760Z,97.4819
2023-04-26T03:24:34.448Z,97.4155
2023-04-26T03:25:35.154Z,97.4515
2023-04-26T03:26:35.838Z,97.4708
2023-04-26T03:27:36.506Z,97.4535
2023-04-26T03:28:37.203Z,97.4663
2023-04-26T03:29:37.920Z,97.4168
2023-04-26T03:30:38.621Z,97.3964
2023-04-26T03:31:39.461Z,97.3638
2023-04-26T03:32:40.185Z,97.3133
2023-04-26T03:33:40.787Z,97.3107
2023-04-26T03:34:41.490Z,97.2800
2023-04-26T03:35:42.192Z,97.2622
2023-04-26T03:36:42.927Z,97.2482
2023-04-26T03:37:43.575Z,97.2587
2023-04-26T03:38:44.247Z,97.2758
2023-04-26T03:39:44.952Z,97.3064
2023-04-26T03:40:45.684Z,97.2713
2023-04-26T03:41:46.367Z,97.1918
2023-04-26T03:42:47.122Z,97.1616
2023-04-26T03:43:47.767Z,97.1594
2023-04-26T03:44:48.466Z,97.1942
2023-04-26T03:45:49.148Z,97.2239
2023-04-26T03:46:49.902Z,97.2595
2023-04-26T03:47:50.693Z,97.2620
2023-04-26T03:48:51.703Z,97.2659
2023-04-26T03:49:52.808Z,97.2753
2023-04-26T03:50:53.505Z,97.3152
2023-04-26T03:51:54.181Z,97.3485
2023-04-26T03:52:54.882Z,97.3278
2023-04-26T03:53:55.593Z,97.3755
2023-04-26T03:54:56.264Z,97.3535
2023-04-26T03:55:56.936Z,97.3090
2023-04-26T03:56:57.619Z,97.3075
2023-04-26T03:57:58.534Z,97.3383
2023-04-26T03:58:59.173Z,97.3646
2023-04-26T03:59:59.934Z,97.4201
2023-04-26T04:01:00.571Z,97.4469
2023-04-26T04:02:01.267Z,97.4925
2023-04-26T04:03:02.016Z,97.5327
2023-04-26T04:04:02.935Z,97.5855
2023-04-26T04:05:03.853Z,97.6025
2023-04-26T04:06:04.620Z,97.6385
2023-04-26T04:07:05.308Z,97.6880
2023-04-26T04:08:06.017Z,97.7648
2023-04-26T04:09:06.728Z,97.8714
2023-04-26T04:10:07.401Z,97.9217
2023-04-26T04:11:08.137Z,97.9687
2023-04-26T04:12:08.834Z,97.9616
2023-04-26T04:13:09.547Z,98.0133
2023-04-26T04:14:10.302Z,98.0205
2023-04-26T04:15:10.998Z,98.0295
2023-04-26T04:16:11.756Z,98.0272
2023-04-26T04:17:12.428Z,98.0047
2023-04-26T04:18:13.177Z,98.0088
2023-04-26T04:19:13.888Z,97.9822
2023-04-26T04:20:14.622Z,98.0095
2023-04-26T04:21:15.347Z,98.0453
2023-04-26T04:22:16.071Z,98.0500
2023-04-26T04:23:16.787Z,98.0258
2023-04-26T04:24:17.429Z,97.9618
2023-04-26T04:25:18.108Z,98.0438
2023-04-26T04:26:18.754Z,98.0722
2023-04-26T04:27:19.523Z,98.0799
2023-04-26T04:28:20.174Z,98.0980
2023-04-26T04:29:20.875Z,98.1220
2023-04-26T04:30:21.584Z,98.1372
2023-04-26T04:31:22.363Z,98.1275
2023-04-26T04:32:23.181Z,98.1395
2023-04-26T04:33:23.878Z,98.1313
2023-04-26T04:34:24.575Z,98.1253
2023-04-26T04:35:25.251Z,98.0478
2023-04-26T04:36:25.924Z,98.0183
2023-04-26T04:37:26.615Z,97.9689
2023-04-26T04:38:27.315Z,97.8843
2023-04-26T04:39:27.953Z,97.8322
2023-04-26T04:40:28.663Z,97.7780
2023-04-26T04:41:29.404Z,97.6765
2023-04-26T04:42:30.087Z,97.6629
2023-04-26T04:43:31.087Z,97.6287
2023-04-26T04:44:31.885Z,97.5801
2023-04-26T04:45:32.574Z,97.5522
2023-04-26T04:46:33.312Z,97.5843
2023-04-26T04:47:34.247Z,97.6001
2023-04-26T04:48:34.995Z,97.4445
2023-04-26T04:49:35.710Z,97.3816
2023-04-26T04:50:36.394Z,97.3740
2023-04-26T04:51:37.122Z,97.3263
2023-04-26T04:52:37.923Z,97.2126
2023-04-26T04:53:38.638Z,97.0524
2023-04-26T04:54:39.250Z,96.9617
2023-04-26T04:55:39.980Z,96.9057
2023-04-26T04:56:40.622Z,96.8772
2023-04-26T04:57:43.117Z,96.7824
2023-04-26T04:58:43.948Z,96.8037
2023-04-26T04:59:44.737Z,96.8535
2023-04-26T05:00:45.412Z,96.9069
2023-04-26T05:01:46.134Z,96.8328
2023-04-26T05:02:46.951Z,96.7695
2023-04-26T05:03:47.776Z,96.7312
2023-04-26T05:04:48.541Z,96.7498
2023-04-26T05:05:49.294Z,96.7131
2023-04-26T05:06:50.039Z,96.6720
2023-04-26T05:07:50.900Z,96.5654
2023-04-26T05:08:51.628Z,96.5072
2023-04-26T05:09:52.325Z,96.4657
2023-04-26T05:10:52.958Z,96.4806
2023-04-26T05:11:53.620Z,96.4461
2023-04-26T05:12:54.340Z,96.4228
2023-04-26T05:13:55.592Z,96.4908
2023-04-26T05:14:56.699Z,96.5078
2023-04-26T05:15:57.503Z,96.2713
2023-04-26T05:16:58.205Z,96.0881
2023-04-26T05:17:58.966Z,96.0100
2023-04-26T05:18:59.670Z,95.9790
2023-04-26T05:20:00.494Z,95.9199
2023-04-26T05:21:01.201Z,95.7696
2023-04-26T05:22:01.907Z,95.7682
2023-04-26T05:23:02.626Z,95.7309
2023-04-26T05:24:03.363Z,95.7860
2023-04-26T05:25:04.064Z,95.7457
2023-04-26T05:26:04.747Z,95.7469
2023-04-26T05:27:05.443Z,95.7720
2023-04-26T05:28:06.144Z,95.8482
2023-04-26T05:29:06.811Z,95.8219
2023-04-26T05:30:07.454Z,95.7253
2023-04-26T05:31:10.632Z,95.6877
2023-04-26T05:32:09.354Z,95.7292
2023-04-26T05:33:10.073Z,95.6515
2023-04-26T05:34:10.743Z,95.6542
2023-04-26T05:35:11.397Z,95.6134
2023-04-26T05:36:12.083Z,95.5835
2023-04-26T05:37:12.742Z,95.6390
2023-04-26T05:38:13.485Z,95.6917
2023-04-26T05:39:14.157Z,95.5765
2023-04-26T05:40:14.837Z,95.6184
2023-04-26T05:41:15.570Z,95.6039
2023-04-26T05:42:17.855Z,95.5460
2023-04-26T05:43:19.136Z,95.3710
2023-04-26T05:44:19.928Z,95.0774
2023-04-26T05:45:20.626Z,94.9785
2023-04-26T05:46:21.607Z,94.8310
2023-04-26T05:47:22.613Z,94.9447
2023-04-26T05:48:23.331Z,95.0917
2023-04-26T05:49:24.017Z,95.0084
2023-04-26T05:50:24.749Z,94.8708
2023-04-26T05:51:25.456Z,94.8311
2023-04-26T05:52:26.179Z,94.7844
2023-04-26T05:53:26.923Z,94.5028
2023-04-26T05:54:27.628Z,94.2870
2023-04-26T05:55:28.367Z,94.5900
2023-04-26T05:56:29.121Z,94.6232
2023-04-26T05:57:29.943Z,94.3631
2023-04-26T05:58:30.662Z,94.2306
2023-04-26T05:59:31.376Z,94.1076
2023-04-26T06:00:32.108Z,94.0158
2023-04-26T06:01:32.873Z,94.0230
2023-04-26T06:02:33.876Z,93.9466
2023-04-26T06:03:35.151Z,93.8147
2023-04-26T06:04:36.191Z,93.6849
2023-04-26T06:05:36.944Z,93.6955
2023-04-26T06:06:37.785Z,94.1309
2023-04-26T06:07:38.499Z,94.1086
2023-04-26T06:08:39.229Z,94.2331
2023-04-26T06:09:39.935Z,94.3243
2023-04-26T06:10:40.673Z,94.4547
2023-04-26T06:11:41.321Z,94.3548
2023-04-26T06:12:42.056Z,94.1734
2023-04-26T06:13:43.126Z,93.9876
2023-04-26T06:14:43.946Z,93.7208
2023-04-26T06:15:44.605Z,93.6223
2023-04-26T06:16:45.428Z,93.5005
2023-04-26T06:17:46.132Z,93.2007
2023-04-26T06:18:46.902Z,93.5857
2023-04-26T06:19:47.698Z,93.7146
2023-04-26T06:20:48.440Z,93.6689
2023-04-26T06:21:49.169Z,93.2590
2023-04-26T06:22:49.939Z,92.9311
2023-04-26T06:23:50.942Z,92.8230
2023-04-26T06:24:52.004Z,92.5908
2023-04-26T06:25:52.669Z,92.8529
2023-04-26T06:26:53.414Z,93.1816
2023-04-26T06:27:54.163Z,93.4289
2023-04-26T06:28:54.890Z,93.8718
2023-04-26T06:29:55.605Z,93.9618
2023-04-26T06:30:56.450Z,93.8134
2023-04-26T06:31:57.173Z,93.5812
2023-04-26T06:32:58.032Z,93.4055
2023-04-26T06:33:58.779Z,92.7052
2023-04-26T06:34:59.509Z,92.3876
2023-04-26T06:36:00.223Z,92.4531
2023-04-26T06:37:00.994Z,92.7339
2023-04-26T06:38:01.689Z,92.8623
2023-04-26T06:39:02.419Z,92.4974
2023-04-26T06:40:03.124Z,92.4994
2023-04-26T06:41:03.863Z,92.5360
2023-04-26T06:42:04.633Z,92.1874
2023-04-26T06:43:05.370Z,91.8758
2023-04-26T06:44:06.126Z,92.7534
2023-04-26T06:45:06.881Z,92.6141
2023-04-26T06:46:07.602Z,92.3089
2023-04-26T06:47:08.311Z,92.1253
2023-04-26T06:48:09.098Z,92.1753
2023-04-26T06:49:09.870Z,92.0159
2023-04-26T06:50:10.614Z,91.7570
2023-04-26T06:51:11.390Z,91.7076
2023-04-26T06:52:12.215Z,92.1071
2023-04-26T06:53:12.922Z,92.4672
2023-04-26T06:54:13.708Z,92.6243
2023-04-26T06:55:14.442Z,92.1773
2023-04-26T06:56:15.133Z,91.7588
2023-04-26T06:57:15.874Z,91.5509
2023-04-26T06:58:16.824Z,91.0480
2023-04-26T06:59:17.572Z,90.7702
2023-04-26T07:00:18.317Z,90.4068
2023-04-26T07:01:19.069Z,90.5129
2023-04-26T07:02:20.068Z,90.9852
2023-04-26T07:03:21.033Z,90.8752
2023-04-26T07:04:22.047Z,90.3879
2023-04-26T07:05:22.911Z,90.3405
2023-04-26T07:06:23.677Z,90.2385
2023-04-26T07:07:24.355Z,90.0415
2023-04-26T07:08:25.100Z,89.6530
2023-04-26T07:09:25.804Z,89.2969
2023-04-26T07:10:26.535Z,88.9405
2023-04-26T07:11:27.270Z,88.4065
2023-04-26T07:12:27.960Z,88.5355
2023-04-26T07:13:28.658Z,88.6802
2023-04-26T07:14:29.343Z,88.6890
2023-04-26T07:15:30.041Z,88.2182
2023-04-26T07:16:30.803Z,88.4869
2023-04-26T07:17:31.600Z,89.1051
2023-04-26T07:18:32.323Z,88.9229
2023-04-26T07:19:33.093Z,89.1110
2023-04-26T07:20:33.871Z,89.1070
2023-04-26T07:21:34.570Z,89.9026
2023-04-26T07:22:35.296Z,89.5808
2023-04-26T07:23:36.090Z,90.0159
2023-04-26T07:24:36.774Z,89.9024
2023-04-26T07:25:37.488Z,89.1943
2023-04-26T07:26:38.208Z,88.8129
2023-04-26T07:27:38.967Z,88.5577
2023-04-26T07:28:39.688Z,88.6122
2023-04-26T07:29:40.435Z,88.4226
2023-04-26T07:30:41.145Z,88.5559
2023-04-26T07:31:41.817Z,88.2034
2023-04-26T07:32:42.659Z,87.8129
2023-04-26T07:33:43.505Z,87.3060
2023-04-26T07:34:44.251Z,87.2079
2023-04-26T07:35:44.988Z,86.6936
2023-04-26T07:36:45.705Z,86.7053
2023-04-26T07:37:46.412Z,86.9510
2023-04-26T07:38:47.179Z,87.0347
2023-04-26T07:39:47.837Z,87.5886
2023-04-26T07:40:48.567Z,87.5368
2023-04-26T07:41:49.238Z,87.1774
2023-04-26T07:42:49.975Z,86.7930
2023-04-26T07:43:50.882Z,86.7552
2023-04-26T07:44:51.973Z,86.0559
2023-04-26T07:45:52.727Z,85.3361
2023-04-26T07:46:53.416Z,85.0690
2023-04-26T07:47:54.781Z,85.8280
2023-04-26T07:48:55.884Z,86.4705
2023-04-26T07:49:56.603Z,86.6566
2023-04-26T07:50:57.327Z,86.3392
2023-04-26T07:51:58.023Z,86.1326
2023-04-26T07:52:58.769Z,85.6508
2023-04-26T07:53:59.440Z,85.9935
2023-04-26T07:55:00.161Z,86.0411
2023-04-26T07:56:00.882Z,85.6515
2023-04-26T07:57:01.636Z,85.4159
2023-04-26T07:58:02.314Z,85.2078
2023-04-26T07:59:03.053Z,85.4901
2023-04-26T08:00:03.744Z,85.7013
2023-04-26T08:01:04.443Z,85.0489
2023-04-26T08:02:05.199Z,84.8272
2023-04-26T08:03:06.108Z,84.5251
2023-04-26T08:04:07.435Z,84.5624
2023-04-26T08:05:08.445Z,84.4466
2023-04-26T08:06:09.233Z,83.8862
2023-04-26T08:07:09.968Z,84.1765
2023-04-26T08:08:10.616Z,83.9903
2023-04-26T08:09:12.499Z,84.2680
2023-04-26T08:10:13.331Z,84.3228
2023-04-26T08:11:14.082Z,84.6121
2023-04-26T08:12:14.830Z,84.7587
2023-04-26T08:13:15.509Z,84.7925
2023-04-26T08:14:16.399Z,84.4802
2023-04-26T08:15:17.103Z,84.4408
2023-04-26T08:16:17.830Z,84.7424
2023-04-26T08:17:18.568Z,83.6681
2023-04-26T08:18:19.292Z,82.8105
2023-04-26T08:19:20.069Z,82.5599
2023-04-26T08:20:20.769Z,82.8123
2023-04-26T08:21:21.510Z,83.1895
2023-04-26T08:22:22.254Z,83.0276
2023-04-26T08:23:22.983Z,82.6236
2023-04-26T08:24:23.884Z,82.6497
2023-04-26T08:25:24.768Z,83.5829
2023-04-26T08:26:25.494Z,83.5899
2023-04-26T08:27:26.236Z,83.6714
2023-04-26T08:28:26.925Z,83.7971
2023-04-26T08:29:27.684Z,83.9864
2023-04-26T08:30:28.411Z,84.1104
2023-04-26T08:31:29.256Z,83.9749
2023-04-26T08:32:30.066Z,83.6589
2023-04-26T08:33:30.762Z,83.6745
2023-04-26T08:34:31.505Z,83.4181
2023-04-26T08:35:32.271Z,83.1597
2023-04-26T08:36:32.962Z,83.4945
2023-04-26T08:37:33.660Z,83.3600
2023-04-26T08:38:34.426Z,83.2140
2023-04-26T08:39:35.160Z,82.9047
2023-04-26T08:40:35.885Z,82.3956
2023-04-26T08:41:36.595Z,82.4550
2023-04-26T08:42:38.002Z,83.0009
2023-04-26T08:43:38.976Z,83.1137
2023-04-26T08:44:39.674Z,82.8097
2023-04-26T08:45:40.495Z,82.4294
2023-04-26T08:46:41.226Z,82.5664
2023-04-26T08:47:42.022Z,82.7033
2023-04-26T08:48:42.727Z,82.5393
2023-04-26T08:49:43.443Z,82.4813
2023-04-26T08:50:44.109Z,82.5388
2023-04-26T08:51:44.855Z,82.5004
2023-04-26T08:52:45.632Z,82.3231
2023-04-26T08:53:46.298Z,82.1646
2023-04-26T08:54:47.036Z,81.8323
2023-04-26T08:55:47.724Z,81.7291
2023-04-26T08:56:48.415Z,81.8914
2023-04-26T08:57:49.105Z,82.1105
2023-04-26T08:58:49.790Z,81.7342
2023-04-26T08:59:50.524Z,82.0789
2023-04-26T09:00:51.383Z,82.0201
2023-04-26T09:01:52.119Z,82.3623
2023-04-26T09:02:53.197Z,82.3989
2023-04-26T09:03:54.585Z,82.1229
2023-04-26T09:04:55.973Z,82.0901
2023-04-26T09:05:56.930Z,81.9360
2023-04-26T09:06:57.652Z,81.5046
2023-04-26T09:07:58.344Z,81.5126
2023-04-26T09:08:59.036Z,81.0878
2023-04-26T09:09:59.840Z,80.6254
2023-04-26T09:11:00.531Z,80.2998
2023-04-26T09:12:01.230Z,80.4314
2023-04-26T09:13:01.957Z,80.5359
2023-04-26T09:14:02.662Z,80.5694
2023-04-26T09:15:03.372Z,80.4735
2023-04-26T09:16:05.267Z,79.7514
2023-04-26T09:17:06.323Z,79.0654
2023-04-26T09:18:07.043Z,78.5320
2023-04-26T09:19:07.769Z,78.0349
2023-04-26T09:20:08.608Z,78.0778
2023-04-26T09:21:09.305Z,77.8645
2023-04-26T09:22:10.026Z,77.8078
2023-04-26T09:23:10.736Z,77.8470
2023-04-26T09:24:11.404Z,78.2512
2023-04-26T09:25:12.103Z,78.5289
2023-04-26T09:26:12.791Z,78.1472
2023-04-26T09:27:13.509Z,78.0167
2023-04-26T09:28:14.182Z,77.5101
2023-04-26T09:29:14.970Z,77.5332
2023-04-26T09:30:15.665Z,78.1550
2023-04-26T09:31:16.399Z,78.3744
2023-04-26T09:32:17.079Z,78.4025
2023-04-26T09:33:17.897Z,77.3038
2023-04-26T09:34:18.568Z,76.4928
2023-04-26T09:35:19.278Z,75.5122
2023-04-26T09:36:19.946Z,74.6088
2023-04-26T09:37:20.627Z,74.2638
2023-04-26T09:38:21.364Z,74.6532
2023-04-26T09:39:22.031Z,75.0366
2023-04-26T09:40:22.788Z,75.6645
2023-04-26T09:41:23.518Z,76.2300
2023-04-26T09:42:24.192Z,76.2732
2023-04-26T09:43:24.826Z,76.4347
2023-04-26T09:44:25.469Z,75.7673
2023-04-26T09:45:26.119Z,75.0461
2023-04-26T09:46:26.843Z,74.9879
2023-04-26T09:47:27.474Z,75.0937
2023-04-26T09:48:28.113Z,74.7218
2023-04-26T09:49:28.766Z,75.2380
2023-04-26T09:50:29.459Z,75.2653
2023-04-26T09:51:30.145Z,75.3294
2023-04-26T09:52:30.792Z,75.3063
2023-04-26T09:53:31.434Z,75.7597
2023-04-26T09:54:32.046Z,75.5557
2023-04-26T09:55:35.468Z,75.4529
2023-04-26T09:56:33.819Z,75.4849
2023-04-26T09:57:34.472Z,75.0548
2023-04-26T09:58:35.093Z,74.8118
2023-04-26T09:59:35.725Z,75.3746
2023-04-26T10:00:36.386Z,75.1564
2023-04-26T10:01:37.088Z,75.0686
2023-04-26T10:02:37.808Z,75.7137
2023-04-26T10:03:38.798Z,75.6712
2023-04-26T10:04:39.788Z,75.4465
2023-04-26T10:05:40.455Z,75.6972
2023-04-26T10:06:41.147Z,75.3112
2023-04-26T10:07:41.875Z,74.5197
2023-04-26T10:08:42.570Z,73.8072
2023-04-26T10:09:43.208Z,73.2207
2023-04-26T10:10:43.929Z,72.8926
2023-04-26T10:11:44.576Z,73.1212
2023-04-26T10:12:45.264Z,74.0738
2023-04-26T10:13:45.991Z,74.0342
2023-04-26T10:14:46.694Z,73.6530
2023-04-26T10:15:47.406Z,73.0279
2023-04-26T10:16:48.112Z,72.8306
2023-04-26T10:17:50.239Z,73.3074
2023-04-26T10:18:50.185Z,72.2332
2023-04-26T10:19:50.939Z,72.5632
2023-04-26T10:20:51.609Z,72.7566
2023-04-26T10:21:52.289Z,72.8715
2023-04-26T10:22:52.963Z,72.0662
2023-04-26T10:23:53.700Z,71.0729
2023-04-26T10:24:54.391Z,70.5470
2023-04-26T10:25:55.082Z,70.4934
2023-04-26T10:26:55.810Z,70.2791
2023-04-26T10:27:56.525Z,69.8148
2023-04-26T10:29:02.098Z,68.8130
2023-04-26T10:29:58.330Z,69.3173
2023-04-26T10:30:58.996Z,70.5073
2023-04-26T10:31:59.653Z,71.7730
2023-04-26T10:33:00.331Z,70.3030
2023-04-26T10:34:00.948Z,68.2551
2023-04-26T10:35:01.621Z,67.4739
2023-04-26T10:36:02.260Z,67.3905
2023-04-26T10:37:02.995Z,67.2792
2023-04-26T10:38:03.638Z,66.0874
2023-04-26T10:39:04.261Z,66.0838
2023-04-26T10:40:04.863Z,65.0613
2023-04-26T10:41:05.545Z,65.1813
2023-04-26T10:42:06.171Z,65.3165
2023-04-26T10:43:06.806Z,64.4145
2023-04-26T10:44:07.421Z,64.4171
2023-04-26T10:45:08.054Z,64.4873
2023-04-26T10:46:08.695Z,63.6903
2023-04-26T10:47:09.284Z,63.6075
2023-04-26T10:48:09.964Z,65.2333
2023-04-26T10:49:10.589Z,66.3879
2023-04-26T10:50:11.215Z,66.2966
2023-04-26T10:51:11.958Z,65.4181
2023-04-26T10:52:12.554Z,64.3107
2023-04-26T10:53:13.198Z,63.6717
2023-04-26T10:54:13.836Z,63.0628
2023-04-26T10:55:14.469Z,63.2006
2023-04-26T10:56:15.083Z,63.3654
2023-04-26T10:57:15.716Z,62.5372
2023-04-26T10:58:16.323Z,62.0616
2023-04-26T10:59:36.125Z,61.8512
2023-04-26T11:00:18.001Z,61.5577
2023-04-26T11:01:18.751Z,60.8130
2023-04-26T11:02:19.408Z,58.8276
2023-04-26T11:03:20.104Z,59.7817
2023-04-26T11:04:20.897Z,59.4151
2023-04-26T11:05:23.557Z,58.0945
2023-04-26T11:06:22.670Z,58.3320
2023-04-26T11:07:23.291Z,57.5805
2023-04-26T11:08:23.934Z,55.8676
2023-04-26T11:09:24.552Z,54.9579
2023-04-26T11:10:25.219Z,54.4464
2023-04-26T11:11:25.905Z,56.0008
2023-04-26T11:12:26.586Z,59.2940
2023-04-26T11:13:27.211Z,61.4432
2023-04-26T11:14:27.872Z,60.5081
2023-04-26T11:15:28.506Z,58.9265
2023-04-26T11:16:29.302Z,58.8357
2023-04-26T11:17:30.002Z,59.5428
2023-04-26T11:18:30.629Z,58.7590
2023-04-26T11:19:31.256Z,56.8718
2023-04-26T11:20:31.830Z,56.0878
2023-04-26T11:21:32.444Z,55.2984
2023-04-26T11:22:33.023Z,55.1974
2023-04-26T11:23:33.849Z,54.2311
2023-04-26T11:24:34.448Z,53.4598
2023-04-26T11:25:35.041Z,52.9709
2023-04-26T11:26:35.652Z,53.0419
2023-04-26T11:27:36.163Z,54.3193
2023-04-26T11:28:36.737Z,55.0177
2023-04-26T11:29:37.331Z,55.7180
2023-04-26T11:30:38.506Z,54.8825
2023-04-26T11:31:39.460Z,54.5876
2023-04-26T11:32:40.120Z,54.4449
2023-04-26T11:33:40.699Z,54.5257
2023-04-26T11:34:41.297Z,54.8929
2023-04-26T11:35:41.869Z,53.1642
2023-04-26T11:36:42.473Z,52.7123
2023-04-26T11:37:43.051Z,51.5509
2023-04-26T11:38:43.694Z,51.0774
2023-04-26T11:39:44.318Z,50.7018
2023-04-26T11:40:44.867Z,49.7808
2023-04-26T11:41:45.436Z,49.5175
2023-04-26T11:42:46.029Z,51.4878
2023-04-26T11:43:46.634Z,52.4250
2023-04-26T11:44:47.879Z,52.1919
2023-04-26T11:45:48.608Z,53.2788
2023-04-26T11:46:49.291Z,54.0706
2023-04-26T11:47:49.899Z,53.8239
2023-04-26T11:48:50.425Z,53.5850
2023-04-26T11:49:51.070Z,53.1884
2023-04-26T11:50:51.614Z,53.0146
2023-04-26T11:51:52.218Z,52.6260
2023-04-26T11:52:52.773Z,52.2069
2023-04-26T11:53:53.318Z,51.8975
2023-04-26T11:54:53.869Z,51.2331
2023-04-26T11:55:54.459Z,50.6981
2023-04-26T11:56:55.050Z,50.4666
2023-04-26T11:57:55.865Z,50.8078
2023-04-26T11:58:56.834Z,51.0853
2023-04-26T11:59:57.639Z,51.0769
2023-04-26T12:00:58.213Z,51.2614
2023-04-26T12:01:58.936Z,50.7498
2023-04-26T12:02:59.715Z,50.4909
2023-04-26T12:04:00.792Z,50.2582
2023-04-26T12:05:01.822Z,49.8591
2023-04-26T12:06:02.545Z,49.6115
2023-04-26T12:07:03.113Z,50.0316
2023-04-26T12:08:03.681Z,50.3982
2023-04-26T12:09:04.258Z,52.3133
2023-04-26T12:10:04.880Z,52.9918
2023-04-26T12:11:05.497Z,51.9090
2023-04-26T12:12:06.092Z,51.0713
2023-04-26T12:13:06.695Z,50.2036
2023-04-26T12:14:07.377Z,50.3836